createdAt,value
2022-12-14T00:00:20.244Z,18.25
2022-12-14T00:03:07.841Z,19.42
2022-12-14T00:05:54.843Z,19.20
2022-12-14T00:08:53.039Z,18.70
2022-12-14T00:11:42.981Z,17.95
2022-12-14T00:14:30.053Z,17.00
2022-12-14T00:17:16.940Z,20.75
2022-12-14T00:20:04.280Z,19.98
2022-12-14T00:22:55.279Z,17.63
2022-12-14T00:25:42.309Z,16.08
2022-12-14T00:28:31.863Z,17.38
2022-12-14T00:31:19.444Z,19.08
2022-12-14T00:34:06.531Z,19.27
2022-12-14T00:36:56.159Z,16.67
2022-12-14T00:39:42.916Z,18.70
2022-12-14T00:42:31.911Z,18.45
2022-12-14T00:45:19.730Z,19.13
2022-12-14T00:48:06.723Z,16.65
2022-12-14T00:50:55.113Z,17.17
2022-12-14T00:53:43.735Z,18.90
2022-12-14T00:56:30.574Z,18.73
2022-12-14T00:59:26.963Z,18.10
2022-12-14T01:02:14.508Z,17.55
2022-12-14T01:05:01.555Z,18.92
2022-12-14T01:08:01.087Z,17.25
2022-12-14T01:10:48.034Z,18.40
2022-12-14T01:13:35.174Z,17.88
2022-12-14T01:16:22.052Z,19.67
2022-12-14T01:19:08.931Z,17.35
2022-12-14T01:21:55.748Z,16.45
2022-12-14T01:24:44.483Z,17.48
2022-12-14T01:27:34.521Z,16.80
2022-12-14T01:30:23.936Z,16.92
2022-12-14T01:36:08.093Z,18.15
2022-12-14T01:38:57.022Z,17.60
2022-12-14T01:41:47.274Z,18.33
2022-12-14T01:44:36.811Z,17.63
2022-12-14T01:47:43.919Z,17.45
2022-12-14T01:50:45.264Z,16.70
2022-12-14T01:53:32.230Z,15.55
2022-12-14T01:56:20.544Z,19.35
2022-12-14T01:59:14.971Z,14.23
2022-12-14T02:02:07.740Z,18.10
2022-12-14T02:04:58.028Z,16.20
2022-12-14T02:07:58.898Z,17.50
2022-12-14T02:10:46.432Z,16.00
2022-12-14T02:13:35.523Z,16.95
2022-12-14T02:16:22.500Z,15.70
2022-12-14T02:19:09.782Z,16.52
2022-12-14T02:22:24.787Z,16.42
2022-12-14T02:25:22.271Z,15.63
2022-12-14T02:28:27.872Z,16.75
2022-12-14T02:31:24.984Z,16.75
2022-12-14T02:34:30.881Z,17.77
2022-12-14T02:37:24.326Z,16.63
2022-12-14T02:40:19.591Z,17.15
2022-12-14T02:43:24.463Z,16.33
2022-12-14T02:46:33.299Z,16.60
2022-12-14T02:49:20.123Z,17.58
2022-12-14T02:52:08.583Z,17.50
2022-12-14T02:54:59.628Z,17.77
2022-12-14T02:58:00.882Z,18.52
2022-12-14T03:00:50.495Z,16.75
2022-12-14T03:03:40.405Z,17.88
2022-12-14T03:06:27.476Z,15.50
2022-12-14T03:09:17.391Z,16.27
2022-12-14T03:12:10.890Z,15.40
2022-12-14T03:15:01.295Z,15.43
2022-12-14T03:17:52.000Z,15.57
2022-12-14T03:20:42.551Z,16.88
2022-12-14T03:23:35.219Z,14.00
2022-12-14T03:26:26.344Z,15.05
2022-12-14T03:29:23.456Z,17.75
2022-12-14T03:32:12.638Z,17.02
2022-12-14T03:35:17.007Z,16.95
2022-12-14T03:38:06.938Z,15.35
2022-12-14T03:41:17.116Z,14.95
2022-12-14T03:44:50.013Z,14.02
2022-12-14T03:47:58.732Z,15.18
2022-12-14T03:51:07.606Z,15.82
2022-12-14T03:54:12.858Z,15.35
2022-12-14T03:57:05.767Z,16.52
2022-12-14T04:00:06.943Z,15.45
2022-12-14T04:03:01.493Z,15.65
2022-12-14T04:06:20.719Z,16.00
2022-12-14T04:12:21.754Z,15.32
2022-12-14T04:15:33.161Z,14.50
2022-12-14T04:18:45.206Z,15.02
2022-12-14T04:21:39.193Z,15.15
2022-12-14T04:25:17.908Z,16.40
2022-12-14T04:28:32.280Z,15.75
2022-12-14T04:31:30.920Z,16.20
2022-12-14T04:34:21.350Z,14.63
2022-12-14T04:37:11.014Z,13.52
2022-12-14T04:40:21.162Z,15.10
2022-12-14T04:43:18.571Z,15.25
2022-12-14T04:46:08.838Z,15.90
2022-12-14T04:49:01.383Z,14.38
2022-12-14T04:52:27.677Z,15.45
2022-12-14T04:55:29.642Z,15.35
2022-12-14T04:58:21.866Z,13.68
2022-12-14T05:01:35.655Z,14.40
2022-12-14T05:04:25.629Z,14.88
2022-12-14T05:07:21.060Z,14.25
2022-12-14T05:10:20.439Z,14.95
2022-12-14T05:13:15.366Z,14.43
2022-12-14T05:16:02.669Z,14.93
2022-12-14T05:18:49.999Z,16.20
2022-12-14T05:21:48.972Z,14.90
2022-12-14T05:24:39.112Z,16.75
2022-12-14T05:27:28.830Z,13.77
2022-12-14T05:30:21.005Z,14.52
2022-12-14T05:33:16.522Z,14.38
2022-12-14T05:36:03.457Z,15.23
2022-12-14T05:38:51.693Z,15.77
2022-12-14T05:41:41.691Z,14.93
2022-12-14T05:44:28.518Z,14.68
2022-12-14T05:47:15.569Z,14.30
2022-12-14T05:50:02.536Z,14.02
2022-12-14T05:52:51.864Z,16.65
2022-12-14T05:58:29.149Z,14.48
2022-12-14T06:01:19.350Z,14.98
2022-12-14T06:04:06.800Z,13.52
2022-12-14T06:06:53.632Z,14.02
2022-12-14T06:09:40.438Z,13.77
2022-12-14T06:12:27.276Z,15.57
2022-12-14T06:15:14.163Z,15.57
2022-12-14T06:18:01.019Z,15.20
2022-12-14T06:20:47.990Z,14.32
2022-12-14T06:23:40.517Z,14.43
2022-12-14T06:26:28.533Z,15.00
2022-12-14T06:29:20.607Z,14.98
2022-12-14T06:32:07.463Z,14.57
2022-12-14T06:35:00.202Z,15.55
2022-12-14T06:37:48.890Z,16.42
2022-12-14T06:40:35.856Z,18.58
2022-12-14T06:43:25.704Z,19.05
2022-12-14T06:46:16.092Z,18.88
2022-12-14T06:49:04.892Z,18.80
2022-12-14T06:51:51.670Z,17.52
2022-12-14T06:54:38.443Z,19.38
2022-12-14T06:57:28.209Z,18.90
2022-12-14T07:00:15.127Z,19.42
2022-12-14T07:03:02.038Z,20.88
2022-12-14T07:05:51.467Z,18.60
2022-12-14T07:11:27.048Z,17.80
2022-12-14T07:14:17.309Z,17.57
2022-12-14T07:17:04.090Z,18.30
2022-12-14T07:19:53.244Z,19.55
2022-12-14T07:22:40.969Z,18.33
2022-12-14T07:25:27.861Z,18.02
2022-12-14T07:28:15.219Z,19.42
2022-12-14T07:31:02.998Z,22.27
2022-12-14T07:33:52.847Z,17.75
2022-12-14T07:36:40.045Z,19.73
2022-12-14T07:39:27.036Z,18.05
2022-12-14T07:42:13.977Z,17.55
2022-12-14T07:45:01.281Z,22.42
2022-12-14T07:47:48.362Z,19.15
2022-12-14T07:50:39.828Z,17.85
2022-12-14T07:53:27.111Z,18.67
2022-12-14T07:56:22.890Z,18.83
2022-12-14T07:59:19.388Z,18.30
2022-12-14T08:02:06.384Z,18.38
2022-12-14T08:04:56.666Z,20.60
2022-12-14T08:07:43.948Z,19.60
2022-12-14T08:10:34.392Z,20.27
2022-12-14T08:13:24.155Z,19.73
2022-12-14T08:16:15.107Z,19.25
2022-12-14T08:19:04.470Z,19.40
2022-12-14T08:24:41.611Z,18.35
2022-12-14T08:27:31.351Z,19.73
2022-12-14T08:30:18.486Z,22.23
2022-12-14T08:33:05.762Z,19.02
2022-12-14T08:35:52.709Z,18.65
2022-12-14T08:38:43.025Z,18.00
2022-12-14T08:41:30.482Z,20.48
2022-12-14T08:44:18.314Z,20.33
2022-12-14T08:47:06.089Z,20.55
2022-12-14T08:49:54.515Z,19.73
2022-12-14T08:52:41.561Z,21.73
2022-12-14T08:55:35.195Z,20.65
2022-12-14T08:58:26.356Z,19.20
2022-12-14T09:01:28.338Z,20.60
2022-12-14T09:04:19.073Z,20.63
2022-12-14T09:07:09.199Z,18.80
2022-12-14T09:09:56.750Z,20.88
2022-12-14T09:12:43.829Z,22.00
2022-12-14T09:15:30.980Z,19.45
2022-12-14T09:18:17.917Z,19.85
2022-12-14T09:21:06.306Z,19.60
2022-12-14T09:23:58.947Z,20.97
2022-12-14T09:26:47.360Z,20.80
2022-12-14T09:29:34.650Z,20.95
2022-12-14T09:32:24.802Z,21.02
2022-12-14T09:35:12.086Z,18.65
2022-12-14T09:38:01.764Z,23.48
2022-12-14T09:40:56.242Z,19.67
2022-12-14T09:43:51.148Z,20.27
2022-12-14T09:46:45.441Z,20.83
2022-12-14T09:49:45.885Z,21.35
2022-12-14T09:52:42.509Z,20.20
2022-12-14T09:55:32.816Z,21.95
2022-12-14T09:58:26.893Z,19.65
2022-12-14T10:01:23.356Z,20.73
2022-12-14T10:04:39.549Z,20.13
2022-12-14T10:07:34.174Z,19.58
2022-12-14T10:10:31.914Z,20.13
2022-12-14T10:13:46.981Z,19.23
2022-12-14T10:16:51.990Z,20.75
2022-12-14T10:19:59.587Z,19.45
2022-12-14T10:30:53.686Z,19.73
2022-12-14T10:45:42.169Z,19.40
2022-12-14T10:49:28.559Z,19.38
2022-12-14T10:53:08.617Z,20.13
2022-12-14T10:56:29.781Z,19.45
2022-12-14T11:00:34.195Z,21.40
2022-12-14T11:15:25.124Z,17.42
2022-12-14T11:22:33.024Z,19.58
2022-12-14T11:32:57.598Z,19.25
2022-12-14T11:36:47.000Z,18.45
2022-12-14T11:39:40.273Z,21.63
2022-12-14T11:46:52.120Z,18.77
2022-12-14T11:49:53.480Z,18.42
2022-12-14T11:53:00.605Z,17.55
2022-12-14T11:56:17.116Z,18.33
2022-12-14T12:00:15.814Z,18.17
2022-12-14T12:03:48.587Z,19.17
2022-12-14T12:06:49.865Z,18.98
2022-12-14T12:09:53.484Z,23.02
2022-12-14T12:13:10.289Z,24.83
2022-12-14T12:19:37.026Z,21.88
2022-12-14T12:22:28.492Z,23.42
2022-12-14T12:25:29.587Z,23.50
2022-12-14T12:28:27.652Z,21.13
2022-12-14T12:31:39.567Z,22.27
2022-12-14T12:34:40.289Z,21.00
2022-12-14T12:37:53.679Z,22.02
2022-12-14T12:40:59.091Z,22.58
2022-12-14T12:44:17.404Z,20.90
2022-12-14T12:47:48.336Z,24.37
2022-12-14T12:50:57.132Z,22.40
2022-12-14T12:57:24.102Z,22.65
2022-12-14T13:00:27.869Z,23.48
2022-12-14T13:03:46.393Z,22.83
2022-12-14T13:07:01.063Z,22.15
2022-12-14T13:13:48.208Z,23.85
2022-12-14T13:17:04.954Z,21.92
2022-12-14T13:20:04.291Z,21.10
2022-12-14T13:26:59.386Z,22.20
2022-12-14T13:30:34.062Z,22.15
2022-12-14T13:34:42.186Z,24.05
2022-12-14T13:38:27.656Z,24.03
2022-12-14T13:41:32.259Z,21.70
2022-12-14T13:45:01.572Z,21.42
2022-12-14T13:51:02.221Z,24.10
2022-12-14T13:54:09.709Z,22.55
2022-12-14T13:57:33.162Z,22.20
2022-12-14T14:00:55.029Z,21.70
2022-12-14T14:04:02.304Z,20.50
2022-12-14T14:07:01.725Z,20.90
2022-12-14T14:16:28.731Z,23.05
2022-12-14T14:19:43.063Z,23.77
2022-12-14T14:22:42.940Z,21.30
2022-12-14T14:26:20.520Z,23.70
2022-12-14T14:29:29.517Z,22.05
2022-12-14T14:33:43.855Z,24.80
2022-12-14T14:36:25.475Z,24.70
2022-12-14T14:40:02.339Z,23.90
2022-12-14T14:46:56.958Z,25.05
2022-12-14T14:50:05.043Z,24.73
2022-12-14T14:53:23.083Z,22.65
2022-12-14T14:56:42.982Z,22.17
2022-12-14T14:59:50.816Z,25.17
2022-12-14T15:02:51.769Z,23.00
2022-12-14T15:05:52.651Z,24.15
2022-12-14T15:08:47.489Z,24.30
2022-12-14T15:12:20.739Z,25.75
2022-12-14T15:15:52.113Z,24.58
2022-12-14T15:18:52.337Z,22.02
2022-12-14T15:22:02.249Z,24.33
2022-12-14T15:25:33.266Z,24.27
2022-12-14T15:32:16.630Z,22.45
2022-12-14T15:35:20.210Z,25.55
2022-12-14T15:38:26.766Z,22.83
2022-12-14T15:41:44.424Z,24.67
2022-12-14T15:44:49.017Z,23.35
2022-12-14T15:48:09.182Z,24.40
2022-12-14T15:51:12.030Z,23.25
2022-12-14T15:53:59.810Z,24.13
2022-12-14T15:57:02.725Z,25.52
2022-12-14T15:59:52.176Z,24.00
2022-12-14T16:02:47.278Z,23.80
2022-12-14T16:05:36.028Z,24.30
2022-12-14T16:08:23.366Z,24.35
2022-12-14T16:11:30.463Z,24.50
2022-12-14T16:14:25.680Z,24.50
2022-12-14T16:17:14.285Z,27.25
2022-12-14T16:20:17.990Z,25.33
2022-12-14T16:23:14.272Z,25.27
2022-12-14T16:26:21.996Z,26.75
2022-12-14T16:29:26.539Z,24.15
2022-12-14T16:32:24.452Z,23.35
2022-12-14T16:35:25.274Z,27.83
2022-12-14T16:38:16.105Z,24.08
2022-12-14T16:41:06.283Z,24.95
2022-12-14T16:43:58.396Z,25.67
2022-12-14T16:47:02.769Z,26.90
2022-12-14T16:49:50.142Z,25.83
2022-12-14T16:52:37.186Z,27.40
2022-12-14T16:55:26.391Z,27.27
2022-12-14T16:58:16.363Z,28.45
2022-12-14T17:01:06.880Z,27.95
2022-12-14T17:04:04.179Z,25.83
2022-12-14T17:06:55.708Z,26.52
2022-12-14T17:09:42.618Z,30.10
2022-12-14T17:12:29.600Z,26.20
2022-12-14T17:15:20.368Z,29.45
2022-12-14T17:18:08.486Z,25.55
2022-12-14T17:21:16.916Z,28.30
2022-12-14T17:45:23.541Z,30.95
2022-12-14T17:48:37.496Z,32.35
2022-12-14T17:51:42.095Z,32.08
2022-12-14T17:54:54.663Z,27.33
2022-12-14T17:58:28.208Z,30.00
2022-12-14T18:10:09.992Z,29.38
2022-12-14T18:13:04.528Z,31.23
2022-12-14T18:16:28.097Z,33.25
2022-12-14T18:19:16.386Z,30.42
2022-12-14T18:22:13.085Z,30.30
2022-12-14T18:25:06.593Z,34.05
2022-12-14T18:27:53.533Z,32.67
2022-12-14T18:30:49.197Z,119.97
2022-12-14T18:33:36.990Z,160.57
2022-12-14T18:36:34.004Z,99.35
2022-12-14T18:39:23.344Z,92.05
2022-12-14T18:45:00.587Z,86.00
2022-12-14T18:47:56.149Z,75.72
2022-12-14T18:50:43.654Z,84.82
2022-12-14T18:53:37.146Z,76.18
2022-12-14T18:56:25.381Z,65.07
2022-12-14T18:59:15.364Z,70.72
2022-12-14T19:02:25.344Z,74.40
2022-12-14T19:05:17.337Z,75.63
2022-12-14T19:08:08.837Z,73.97
2022-12-14T19:11:01.961Z,79.05
2022-12-14T19:14:03.290Z,85.15
2022-12-14T19:16:52.824Z,88.97
2022-12-14T19:19:44.403Z,70.25
2022-12-14T19:23:00.681Z,64.35
2022-12-14T19:26:05.779Z,67.45
2022-12-14T19:32:24.892Z,71.57
2022-12-14T19:35:15.143Z,62.28
2022-12-14T19:41:59.933Z,63.13
2022-12-14T19:47:55.437Z,62.58
2022-12-14T19:51:18.732Z,60.67
2022-12-14T19:54:40.967Z,62.20
2022-12-14T19:57:32.450Z,47.88
2022-12-14T20:00:27.512Z,62.90
2022-12-14T20:03:25.023Z,63.38
2022-12-14T20:10:28.446Z,54.05
2022-12-14T20:16:29.124Z,51.50
2022-12-14T20:16:31.196Z,55.63
2022-12-14T20:19:44.199Z,54.28
2022-12-14T20:22:57.881Z,55.90
2022-12-14T20:26:04.014Z,51.67
2022-12-14T20:29:06.374Z,49.45
2022-12-14T20:32:11.613Z,47.58
2022-12-14T20:35:20.959Z,53.92
2022-12-14T20:41:12.593Z,45.70
2022-12-14T20:44:08.051Z,47.78
2022-12-14T20:46:55.381Z,45.58
2022-12-14T20:49:53.420Z,50.90
2022-12-14T20:52:45.876Z,50.90
2022-12-14T20:55:45.115Z,46.08
2022-12-14T20:58:42.295Z,42.80
2022-12-14T21:01:32.224Z,44.42
2022-12-14T21:04:19.249Z,46.55
2022-12-14T21:07:22.905Z,41.45
2022-12-14T21:10:15.586Z,41.55
2022-12-14T21:13:08.548Z,34.92
2022-12-14T21:16:05.223Z,44.70
2022-12-14T21:18:56.593Z,41.65
2022-12-14T21:21:53.496Z,38.25
2022-12-14T21:25:02.222Z,38.67
2022-12-14T21:27:57.115Z,38.25
2022-12-14T21:30:47.339Z,39.08
2022-12-14T21:34:14.903Z,40.90
2022-12-14T21:37:38.943Z,40.40
2022-12-14T21:40:45.708Z,39.67
2022-12-14T21:43:38.691Z,40.65
2022-12-14T21:46:34.259Z,36.63
2022-12-14T21:49:41.787Z,33.42
2022-12-14T21:52:32.719Z,34.08
2022-12-14T21:55:21.954Z,39.92
2022-12-14T21:58:20.995Z,35.88
2022-12-14T22:01:19.894Z,34.80
2022-12-14T22:04:09.996Z,36.75
2022-12-14T22:06:58.124Z,33.08
2022-12-14T22:09:51.039Z,34.35
2022-12-14T22:12:43.862Z,39.15
2022-12-14T22:15:42.944Z,32.38
2022-12-14T22:18:42.738Z,34.70
2022-12-14T22:21:29.767Z,35.72
2022-12-14T22:24:17.443Z,30.33
2022-12-14T22:27:17.551Z,34.08
2022-12-14T22:30:05.498Z,33.90
2022-12-14T22:32:58.951Z,36.10
2022-12-14T22:35:47.211Z,36.05
2022-12-14T22:38:34.238Z,34.38
2022-12-14T22:41:21.132Z,33.67
2022-12-14T22:44:08.438Z,30.38
2022-12-14T22:47:09.543Z,27.67
2022-12-14T22:49:56.557Z,31.95
2022-12-14T22:52:43.550Z,30.13
2022-12-14T22:55:37.814Z,28.85
2022-12-14T22:58:26.688Z,27.50
2022-12-14T23:01:16.014Z,31.02
2022-12-14T23:06:53.138Z,28.70
2022-12-14T23:10:08.799Z,28.25
2022-12-14T23:13:14.282Z,26.73
2022-12-14T23:16:20.012Z,29.23
2022-12-14T23:19:29.951Z,31.90
2022-12-14T23:22:40.506Z,26.70
2022-12-14T23:25:45.919Z,29.55
2022-12-14T23:28:51.645Z,28.95
2022-12-14T23:31:58.462Z,28.40
2022-12-14T23:35:03.910Z,27.50
2022-12-14T23:38:15.024Z,29.50
2022-12-14T23:41:22.532Z,26.30
2022-12-14T23:44:28.155Z,27.75
2022-12-14T23:47:33.552Z,30.75
2022-12-14T23:50:39.582Z,26.38
2022-12-14T23:53:50.025Z,26.10
2022-12-14T23:56:56.071Z,25.70
